createdAt,value
2022-12-19T00:01:34.401Z,45.30
2022-12-19T00:04:08.372Z,37.80
2022-12-19T00:06:37.343Z,35.85
2022-12-19T00:09:04.403Z,45.13
2022-12-19T00:11:31.725Z,40.42
2022-12-19T00:13:58.722Z,43.53
2022-12-19T00:16:29.576Z,36.08
2022-12-19T00:18:58.772Z,43.03
2022-12-19T00:21:27.612Z,40.20
2022-12-19T00:23:54.327Z,45.30
2022-12-19T00:26:46.865Z,37.95
2022-12-19T00:29:14.545Z,39.08
2022-12-19T00:31:41.227Z,40.30
2022-12-19T00:36:34.615Z,36.90
2022-12-19T00:39:07.823Z,37.25
2022-12-19T00:41:36.594Z,42.25
2022-12-19T00:44:06.214Z,34.53
2022-12-19T00:46:34.605Z,37.78
2022-12-19T00:49:01.173Z,41.75
2022-12-19T00:51:30.016Z,46.70
2022-12-19T00:53:58.059Z,39.65
2022-12-19T00:56:31.293Z,40.92
2022-12-19T00:58:59.956Z,44.78
2022-12-19T01:06:41.508Z,37.50
2022-12-19T01:11:34.820Z,43.88
2022-12-19T01:14:01.193Z,41.47
2022-12-19T01:16:27.567Z,53.10
2022-12-19T01:18:53.951Z,43.00
2022-12-19T01:21:20.288Z,46.03
2022-12-19T01:23:46.593Z,51.58
2022-12-19T01:26:13.538Z,45.95
2022-12-19T01:28:39.938Z,50.53
2022-12-19T01:31:06.650Z,41.83
2022-12-19T01:33:35.658Z,55.38
2022-12-19T01:36:02.081Z,58.05
2022-12-19T01:40:56.790Z,43.60
2022-12-19T01:43:24.596Z,51.05
2022-12-19T01:45:57.574Z,53.15
2022-12-19T01:48:43.687Z,55.08
2022-12-19T01:51:18.104Z,55.50
2022-12-19T01:53:49.976Z,60.13
2022-12-19T01:56:19.330Z,50.13
2022-12-19T01:58:46.086Z,48.85
2022-12-19T02:01:13.721Z,51.50
2022-12-19T02:03:41.287Z,57.13
2022-12-19T02:06:08.533Z,58.70
2022-12-19T02:08:35.815Z,49.95
2022-12-19T02:11:02.129Z,60.25
2022-12-19T02:13:28.622Z,55.95
2022-12-19T02:18:50.251Z,49.72
2022-12-19T02:21:29.746Z,51.63
2022-12-19T02:24:19.817Z,64.53
2022-12-19T02:27:06.598Z,53.60
2022-12-19T02:29:35.656Z,53.65
2022-12-19T02:32:11.456Z,55.15
2022-12-19T02:34:49.580Z,52.65
2022-12-19T02:37:26.937Z,54.97
2022-12-19T02:40:06.173Z,58.90
2022-12-19T02:42:37.923Z,62.10
2022-12-19T02:45:07.796Z,47.50
2022-12-19T02:47:34.977Z,72.63
2022-12-19T02:50:02.434Z,68.22
2022-12-19T02:52:28.726Z,60.67
2022-12-19T02:55:02.934Z,61.05
2022-12-19T02:57:33.848Z,58.58
2022-12-19T03:00:13.964Z,62.40
2022-12-19T03:03:06.835Z,60.13
2022-12-19T03:05:52.753Z,70.55
2022-12-19T03:08:36.150Z,60.55
2022-12-19T03:11:07.688Z,63.63
2022-12-19T03:13:41.527Z,58.50
2022-12-19T03:16:10.162Z,65.90
2022-12-19T03:18:36.837Z,61.65
2022-12-19T03:21:19.571Z,55.92
2022-12-19T03:23:47.711Z,57.97
2022-12-19T03:26:20.198Z,72.07
2022-12-19T03:31:19.315Z,66.18
2022-12-19T03:33:50.689Z,54.47
2022-12-19T03:36:22.641Z,62.00
2022-12-19T03:38:49.651Z,44.92
2022-12-19T03:41:18.906Z,56.83
2022-12-19T03:43:46.113Z,61.25
2022-12-19T03:46:20.205Z,64.55
2022-12-19T03:48:49.760Z,46.40
2022-12-19T03:51:59.330Z,57.40
2022-12-19T03:54:33.872Z,46.83
2022-12-19T03:57:10.301Z,60.47
2022-12-19T03:59:46.349Z,53.40
2022-12-19T04:02:15.434Z,47.33
2022-12-19T04:04:50.276Z,67.85
2022-12-19T04:07:17.328Z,48.95
2022-12-19T04:09:45.729Z,50.35
2022-12-19T04:12:22.711Z,58.63
2022-12-19T04:14:49.979Z,47.92
2022-12-19T04:17:28.196Z,59.90
2022-12-19T04:20:05.944Z,59.10
2022-12-19T04:22:43.719Z,60.90
2022-12-19T04:25:13.857Z,58.67
2022-12-19T04:27:43.393Z,51.97
2022-12-19T04:30:14.453Z,53.00
2022-12-19T04:32:46.606Z,55.75
2022-12-19T04:35:13.360Z,63.67
2022-12-19T04:37:40.307Z,64.63
2022-12-19T04:40:08.196Z,60.95
2022-12-19T04:42:34.934Z,47.83
2022-12-19T04:45:01.403Z,63.00
2022-12-19T04:47:28.469Z,65.75
2022-12-19T04:49:54.788Z,52.95
2022-12-19T04:52:21.110Z,52.05
2022-12-19T04:54:47.446Z,54.55
2022-12-19T04:57:13.830Z,55.85
2022-12-19T04:59:40.221Z,49.55
2022-12-19T05:02:06.636Z,49.10
2022-12-19T05:04:33.074Z,54.83
2022-12-19T05:06:59.420Z,50.97
2022-12-19T05:09:26.093Z,52.20
2022-12-19T05:11:52.458Z,45.97
2022-12-19T05:16:45.032Z,50.85
2022-12-19T05:19:11.619Z,54.28
2022-12-19T05:21:38.024Z,50.00
2022-12-19T05:26:30.977Z,52.35
2022-12-19T05:28:57.330Z,52.80
2022-12-19T05:31:23.733Z,47.05
2022-12-19T05:36:17.734Z,47.17
2022-12-19T05:38:44.438Z,48.63
2022-12-19T05:41:15.775Z,44.78
2022-12-19T05:43:49.203Z,42.20
2022-12-19T05:46:15.601Z,44.28
2022-12-19T05:48:42.026Z,43.78
2022-12-19T05:53:39.529Z,42.20
2022-12-19T05:56:14.685Z,44.97
2022-12-19T05:58:42.070Z,45.58
2022-12-19T06:01:11.914Z,47.85
2022-12-19T06:03:38.532Z,51.83
2022-12-19T06:06:07.381Z,44.65
2022-12-19T06:08:34.311Z,45.88
2022-12-19T06:11:04.706Z,44.45
2022-12-19T06:13:31.505Z,40.72
2022-12-19T06:16:06.057Z,41.58
2022-12-19T06:18:32.958Z,40.65
2022-12-19T06:21:07.471Z,42.50
2022-12-19T06:23:36.286Z,42.17
2022-12-19T06:26:04.644Z,36.42
2022-12-19T06:28:32.104Z,40.35
2022-12-19T06:31:00.341Z,38.40
2022-12-19T06:33:27.558Z,33.67
2022-12-19T06:36:00.647Z,30.20
2022-12-19T06:38:28.471Z,33.60
2022-12-19T06:40:55.234Z,31.52
2022-12-19T06:43:21.558Z,34.80
2022-12-19T06:48:14.328Z,29.00
2022-12-19T06:53:06.963Z,30.33
2022-12-19T06:55:36.573Z,31.35
2022-12-19T06:58:03.838Z,27.85
2022-12-19T07:00:31.029Z,26.02
2022-12-19T07:02:58.742Z,30.65
2022-12-19T07:05:25.514Z,33.10
2022-12-19T07:07:52.602Z,29.05
2022-12-19T07:10:19.139Z,31.27
2022-12-19T07:12:45.511Z,30.02
2022-12-19T07:17:38.735Z,29.83
2022-12-19T07:20:05.806Z,31.45
2022-12-19T07:22:35.087Z,28.10
2022-12-19T07:25:03.838Z,26.20
2022-12-19T07:27:35.635Z,29.85
2022-12-19T07:32:29.710Z,27.15
2022-12-19T07:37:22.386Z,26.17
2022-12-19T07:39:49.108Z,28.23
2022-12-19T07:42:15.491Z,30.73
2022-12-19T07:47:08.045Z,23.15
2022-12-19T07:52:00.677Z,24.42
2022-12-19T07:56:53.362Z,24.70
2022-12-19T07:59:24.423Z,24.35
2022-12-19T08:01:53.866Z,27.95
2022-12-19T08:04:20.466Z,23.58
2022-12-19T08:06:46.835Z,28.80
2022-12-19T08:09:13.374Z,26.70
2022-12-19T08:11:39.717Z,28.55
2022-12-19T08:16:43.985Z,24.05
2022-12-19T08:19:21.463Z,19.77
2022-12-19T08:24:17.265Z,23.90
2022-12-19T08:29:14.321Z,23.10
2022-12-19T08:31:40.749Z,19.85
2022-12-19T08:34:07.131Z,22.88
2022-12-19T08:36:33.651Z,19.20
2022-12-19T08:39:00.044Z,19.83
2022-12-19T08:41:26.443Z,22.20
2022-12-19T08:43:54.070Z,22.50
2022-12-19T08:46:21.415Z,21.63
2022-12-19T08:48:48.130Z,23.38
2022-12-19T08:51:16.215Z,22.50
2022-12-19T08:53:44.456Z,19.10
2022-12-19T08:56:16.940Z,19.13
2022-12-19T08:58:43.916Z,19.40
2022-12-19T09:01:13.278Z,17.77
2022-12-19T09:03:42.867Z,17.92
2022-12-19T09:06:27.198Z,17.00
2022-12-19T09:08:53.645Z,19.13
2022-12-19T09:11:26.751Z,17.55
2022-12-19T09:13:55.871Z,16.02
2022-12-19T09:16:24.027Z,15.68
2022-12-19T09:18:53.026Z,13.57
2022-12-19T09:21:21.684Z,15.77
2022-12-19T09:23:53.663Z,14.88
2022-12-19T09:26:21.959Z,15.52
2022-12-19T09:28:50.502Z,15.70
2022-12-19T09:31:19.671Z,13.57
2022-12-19T09:33:46.047Z,14.40
2022-12-19T09:36:14.511Z,14.13
2022-12-19T09:38:41.483Z,12.30
2022-12-19T09:41:13.642Z,13.30
2022-12-19T09:43:45.153Z,15.52
2022-12-19T09:46:19.670Z,14.10
2022-12-19T09:48:54.216Z,11.82
2022-12-19T09:51:35.421Z,11.57
2022-12-19T09:54:10.982Z,12.02
2022-12-19T09:56:46.310Z,13.55
2022-12-19T09:59:28.120Z,13.90
2022-12-19T10:02:49.487Z,13.15
2022-12-19T10:06:01.171Z,10.90
2022-12-19T10:08:19.648Z,14.82
2022-12-19T10:12:39.024Z,14.18
2022-12-19T10:14:23.701Z,13.20
2022-12-19T10:17:22.525Z,13.40
2022-12-19T10:20:14.883Z,15.35
2022-12-19T10:23:18.789Z,12.70
2022-12-19T10:26:13.935Z,13.15
2022-12-19T10:29:15.026Z,14.15
2022-12-19T10:31:53.702Z,12.10
2022-12-19T10:34:30.031Z,14.23
2022-12-19T10:37:27.721Z,11.85
2022-12-19T10:42:23.892Z,12.32
2022-12-19T10:44:52.925Z,13.60
2022-12-19T10:47:19.266Z,11.00
2022-12-19T10:49:45.653Z,15.90
2022-12-19T10:52:12.739Z,14.85
2022-12-19T10:54:43.132Z,11.98
2022-12-19T10:57:21.775Z,13.23
2022-12-19T11:00:03.759Z,12.55
2022-12-19T11:02:39.430Z,13.40
2022-12-19T11:05:41.321Z,14.25
2022-12-19T11:08:07.667Z,14.85
2022-12-19T11:12:31.043Z,15.57
2022-12-19T11:19:49.162Z,11.60
2022-12-19T11:21:28.319Z,13.40
2022-12-19T11:29:15.062Z,12.30
2022-12-19T11:29:33.803Z,12.07
2022-12-19T11:30:44.327Z,14.43
2022-12-19T11:30:46.077Z,10.63
2022-12-19T11:33:27.527Z,12.63
2022-12-19T11:35:56.360Z,12.05
2022-12-19T11:38:39.884Z,11.85
2022-12-19T11:41:13.831Z,13.57
2022-12-19T11:43:56.840Z,11.10
2022-12-19T11:46:41.914Z,12.57
2022-12-19T11:49:26.912Z,10.75
2022-12-19T11:53:02.084Z,11.55
2022-12-19T11:55:25.485Z,11.43
2022-12-19T11:57:53.204Z,12.23
2022-12-19T12:00:22.979Z,11.35
2022-12-19T12:03:04.308Z,13.02
2022-12-19T12:05:46.471Z,12.75
2022-12-19T12:10:53.781Z,12.57
2022-12-19T12:17:20.392Z,11.35
2022-12-19T12:26:26.935Z,11.65
2022-12-19T12:31:00.702Z,13.45
2022-12-19T12:31:11.914Z,12.02
2022-12-19T12:31:16.967Z,9.60
2022-12-19T12:31:48.515Z,11.77
2022-12-19T12:32:05.780Z,10.70
2022-12-19T12:38:43.946Z,9.13
2022-12-19T12:41:27.261Z,10.63
2022-12-19T12:44:11.304Z,10.32
2022-12-19T12:46:44.364Z,11.10
2022-12-19T12:49:35.609Z,10.35
2022-12-19T12:52:04.592Z,10.50
2022-12-19T12:54:37.841Z,10.85
2022-12-19T12:57:04.329Z,10.52
2022-12-19T12:59:31.471Z,8.60
2022-12-19T13:02:13.039Z,8.57
2022-12-19T13:04:56.615Z,8.20
2022-12-19T13:07:43.311Z,11.15
2022-12-19T13:10:23.966Z,9.98
2022-12-19T13:12:58.241Z,8.45
2022-12-19T13:15:27.252Z,9.70
2022-12-19T13:17:54.632Z,9.77
2022-12-19T13:20:23.933Z,7.60
2022-12-19T13:22:58.997Z,8.65
2022-12-19T13:25:34.527Z,9.15
2022-12-19T13:28:00.831Z,8.63
2022-12-19T13:30:28.972Z,10.75
2022-12-19T13:32:55.277Z,9.65
2022-12-19T13:36:37.321Z,8.50
2022-12-19T13:39:58.208Z,9.00
2022-12-19T13:41:05.795Z,8.50
2022-12-19T13:43:42.101Z,11.23
2022-12-19T13:46:36.466Z,9.80
2022-12-19T13:49:15.081Z,11.50
2022-12-19T13:51:51.859Z,9.93
2022-12-19T13:54:24.512Z,10.18
2022-12-19T13:56:52.700Z,9.68
2022-12-19T13:59:20.623Z,11.63
2022-12-19T14:01:47.278Z,9.82
2022-12-19T14:04:24.974Z,8.38
2022-12-19T14:06:58.610Z,10.00
2022-12-19T14:11:32.502Z,10.20
2022-12-19T14:13:48.761Z,10.65
2022-12-19T14:15:36.585Z,9.32
2022-12-19T14:18:44.776Z,8.73
2022-12-19T14:22:11.010Z,10.18
2022-12-19T14:24:16.900Z,10.68
2022-12-19T14:28:21.292Z,9.77
2022-12-19T14:30:28.413Z,10.65
2022-12-19T14:33:39.754Z,10.52
2022-12-19T14:36:05.161Z,11.48
2022-12-19T14:39:23.277Z,10.05
2022-12-19T14:41:08.022Z,10.55
2022-12-19T14:43:58.926Z,11.57
2022-12-19T14:52:08.827Z,9.23
2022-12-19T14:54:02.601Z,11.00
2022-12-19T14:55:59.109Z,11.20
2022-12-19T14:58:54.409Z,11.65
2022-12-19T15:01:09.286Z,10.18
2022-12-19T15:04:01.150Z,12.10
2022-12-19T15:07:07.491Z,9.50
2022-12-19T15:10:58.320Z,10.45
2022-12-19T15:14:20.950Z,10.75
2022-12-19T15:15:37.000Z,10.82
2022-12-19T15:18:16.371Z,12.35
2022-12-19T15:20:42.747Z,11.07
2022-12-19T15:23:09.411Z,11.18
2022-12-19T15:26:02.583Z,10.95
2022-12-19T15:28:30.280Z,10.77
2022-12-19T15:31:02.996Z,14.93
2022-12-19T15:33:29.379Z,11.00
2022-12-19T15:35:55.807Z,12.40
2022-12-19T15:38:22.152Z,11.98
2022-12-19T15:40:48.700Z,13.23
2022-12-19T15:43:53.616Z,13.70
2022-12-19T15:46:09.684Z,12.48
2022-12-19T15:48:39.539Z,13.43
2022-12-19T15:51:06.176Z,14.00
2022-12-19T15:53:40.778Z,12.15
2022-12-19T15:56:28.404Z,11.95
2022-12-19T15:58:57.011Z,12.98
2022-12-19T16:01:23.949Z,16.90
2022-12-19T16:03:51.299Z,14.48
2022-12-19T16:06:18.240Z,15.88
2022-12-19T16:08:44.564Z,14.23
2022-12-19T16:11:20.021Z,14.90
2022-12-19T16:13:51.256Z,13.43
2022-12-19T16:16:17.681Z,17.88
2022-12-19T16:18:44.611Z,14.32
2022-12-19T16:21:31.667Z,13.20
2022-12-19T16:24:00.270Z,13.50
2022-12-19T16:26:34.113Z,13.30
2022-12-19T16:29:01.123Z,13.95
2022-12-19T16:31:27.960Z,14.35
2022-12-19T16:33:54.655Z,16.52
2022-12-19T16:36:21.341Z,16.77
2022-12-19T16:38:47.742Z,14.98
2022-12-19T16:41:21.788Z,12.68
2022-12-19T16:43:48.289Z,14.93
2022-12-19T16:46:20.325Z,14.98
2022-12-19T16:48:47.951Z,14.25
2022-12-19T16:51:20.069Z,15.25
2022-12-19T16:53:47.631Z,17.17
2022-12-19T16:56:39.669Z,15.35
2022-12-19T16:59:14.840Z,16.73
2022-12-19T17:01:43.600Z,17.13
2022-12-19T17:04:14.080Z,17.25
2022-12-19T17:06:40.589Z,18.27
2022-12-19T17:09:07.215Z,15.60
2022-12-19T17:11:33.864Z,16.20
2022-12-19T17:14:06.839Z,15.50
2022-12-19T17:16:33.271Z,17.90
2022-12-19T17:19:00.162Z,15.02
2022-12-19T17:21:26.515Z,15.27
2022-12-19T17:23:52.842Z,17.90
2022-12-19T17:26:19.264Z,14.95
2022-12-19T17:28:46.168Z,15.60
2022-12-19T17:31:22.622Z,13.55
2022-12-19T17:33:49.599Z,17.45
2022-12-19T17:36:19.925Z,16.80
2022-12-19T17:38:49.592Z,13.82
2022-12-19T17:41:16.230Z,16.23
2022-12-19T17:43:43.219Z,14.43
2022-12-19T17:46:17.531Z,15.07
2022-12-19T17:48:44.304Z,14.75
2022-12-19T17:51:12.914Z,15.30
2022-12-19T17:53:39.273Z,16.05
2022-12-19T17:56:08.461Z,13.60
2022-12-19T17:58:34.907Z,12.93
2022-12-19T18:01:01.372Z,13.05
2022-12-19T18:03:27.847Z,11.80
2022-12-19T18:05:55.914Z,15.68
2022-12-19T18:08:31.017Z,12.73
2022-12-19T18:10:59.973Z,12.63
2022-12-19T18:13:28.183Z,13.45
2022-12-19T18:16:00.268Z,12.88
2022-12-19T18:18:29.529Z,15.00
2022-12-19T18:20:57.544Z,12.27
2022-12-19T18:23:23.935Z,13.35
2022-12-19T18:26:00.926Z,15.68
2022-12-19T18:28:27.873Z,13.55
2022-12-19T18:31:00.343Z,14.27
2022-12-19T18:33:27.252Z,11.85
2022-12-19T18:35:55.003Z,13.45
2022-12-19T18:38:23.638Z,14.80
2022-12-19T18:40:51.357Z,12.90
2022-12-19T18:43:18.174Z,12.35
2022-12-19T18:45:47.411Z,14.07
2022-12-19T18:48:23.960Z,13.38
2022-12-19T18:50:50.472Z,12.45
2022-12-19T18:53:19.509Z,12.75
2022-12-19T18:55:45.955Z,10.98
2022-12-19T18:58:12.303Z,12.48
2022-12-19T19:00:39.625Z,11.52
2022-12-19T19:03:13.106Z,13.50
2022-12-19T19:05:40.603Z,11.77
2022-12-19T19:08:15.750Z,10.93
2022-12-19T19:10:42.111Z,13.07
2022-12-19T19:13:10.620Z,12.40
2022-12-19T19:15:50.246Z,12.02
2022-12-19T19:18:20.940Z,12.40
2022-12-19T19:20:49.139Z,10.38
2022-12-19T19:23:15.974Z,11.07
2022-12-19T19:25:42.472Z,10.80
2022-12-19T19:28:09.088Z,11.10
2022-12-19T19:30:37.511Z,10.30
2022-12-19T19:33:11.460Z,12.38
2022-12-19T19:35:38.583Z,10.32
2022-12-19T19:38:07.287Z,12.07
2022-12-19T19:40:35.080Z,10.98
2022-12-19T19:43:01.453Z,9.60
2022-12-19T19:45:27.986Z,10.50
2022-12-19T19:47:55.100Z,8.95
2022-12-19T19:50:21.505Z,10.15
2022-12-19T19:52:47.891Z,10.95
2022-12-19T19:55:14.241Z,9.65
2022-12-19T19:57:40.622Z,9.45
2022-12-19T20:00:08.100Z,9.10
2022-12-19T20:02:35.269Z,9.65
2022-12-19T20:05:01.844Z,9.55
2022-12-19T20:07:28.145Z,10.82
2022-12-19T20:09:54.512Z,10.52
2022-12-19T20:12:20.876Z,9.93
2022-12-19T20:14:47.392Z,11.05
2022-12-19T20:17:14.053Z,9.43
2022-12-19T20:19:40.437Z,9.90
2022-12-19T20:22:07.000Z,9.00
2022-12-19T20:24:33.489Z,9.98
2022-12-19T20:27:00.038Z,8.57
2022-12-19T20:29:26.984Z,7.65
2022-12-19T20:31:53.477Z,8.25
2022-12-19T20:34:19.830Z,6.18
2022-12-19T20:36:46.576Z,7.05
2022-12-19T20:39:13.018Z,7.30
2022-12-19T20:41:39.353Z,8.02
2022-12-19T20:44:05.753Z,6.93
2022-12-19T20:46:32.400Z,8.50
2022-12-19T20:48:58.892Z,7.13
2022-12-19T20:51:25.280Z,7.35
2022-12-19T20:53:53.120Z,8.45
2022-12-19T20:56:19.573Z,7.60
2022-12-19T20:58:46.509Z,7.63
2022-12-19T21:01:17.941Z,6.32
2022-12-19T21:03:44.677Z,7.97
2022-12-19T21:06:13.090Z,8.75
2022-12-19T21:08:39.847Z,8.18
2022-12-19T21:11:08.100Z,8.60
2022-12-19T21:13:36.487Z,8.60
2022-12-19T21:16:05.154Z,8.55
2022-12-19T21:18:31.569Z,7.28
2022-12-19T21:20:58.467Z,7.97
2022-12-19T21:23:25.638Z,7.63
2022-12-19T21:25:56.113Z,9.38
2022-12-19T21:28:22.454Z,9.25
2022-12-19T21:30:55.947Z,9.93
2022-12-19T21:33:22.370Z,8.35
2022-12-19T21:35:48.736Z,8.35
2022-12-19T21:38:15.113Z,7.80
2022-12-19T21:40:41.439Z,7.90
2022-12-19T21:43:11.746Z,9.25
2022-12-19T21:45:39.047Z,7.63
2022-12-19T21:48:05.660Z,10.80
2022-12-19T21:50:31.978Z,7.90
2022-12-19T21:52:58.326Z,8.30
2022-12-19T21:55:24.632Z,8.23
2022-12-19T21:57:50.932Z,8.63
2022-12-19T22:00:17.610Z,7.47
2022-12-19T22:03:11.936Z,9.73
2022-12-19T22:05:33.897Z,9.10
2022-12-19T22:08:00.215Z,9.48
2022-12-19T22:10:26.548Z,12.35
2022-12-19T22:12:52.864Z,7.32
2022-12-19T22:15:19.258Z,9.38
2022-12-19T22:17:45.613Z,8.02
2022-12-19T22:20:12.085Z,8.18
2022-12-19T22:22:38.439Z,8.80
2022-12-19T22:25:05.263Z,9.10
2022-12-19T22:27:31.601Z,7.90
2022-12-19T22:29:57.968Z,9.43
2022-12-19T22:32:24.338Z,8.18
2022-12-19T22:34:50.728Z,9.85
2022-12-19T22:37:17.211Z,6.55
2022-12-19T22:39:43.616Z,8.68
2022-12-19T22:42:09.950Z,8.82
2022-12-19T22:44:36.387Z,7.63
2022-12-19T22:47:02.782Z,7.55
2022-12-19T22:49:29.091Z,7.47
2022-12-19T22:51:57.593Z,7.35
2022-12-19T22:54:23.952Z,7.32
2022-12-19T22:56:50.798Z,8.70
2022-12-19T22:59:17.128Z,7.60
2022-12-19T23:01:43.726Z,8.05
2022-12-19T23:04:15.581Z,7.82
2022-12-19T23:06:42.456Z,8.80
2022-12-19T23:09:12.127Z,7.00
2022-12-19T23:11:40.922Z,8.23
2022-12-19T23:14:11.114Z,8.55
2022-12-19T23:16:37.467Z,8.80
2022-12-19T23:19:04.908Z,8.65
2022-12-19T23:21:31.223Z,8.45
2022-12-19T23:23:57.635Z,8.05
2022-12-19T23:26:29.663Z,8.63
2022-12-19T23:29:01.596Z,9.80
2022-12-19T23:31:28.799Z,7.65
2022-12-19T23:33:55.846Z,10.70
2022-12-19T23:36:45.335Z,7.43
2022-12-19T23:39:10.561Z,10.07
2022-12-19T23:41:37.580Z,9.00
2022-12-19T23:44:04.167Z,9.77
2022-12-19T23:46:30.734Z,7.55
2022-12-19T23:48:57.149Z,8.18
2022-12-19T23:51:26.577Z,6.60
2022-12-19T23:53:55.031Z,7.32
2022-12-19T23:56:26.933Z,8.45
2022-12-19T23:58:54.452Z,9.30
